Hovedside
METAR-TAF:

METAR-TAF

Lufthavner :

Mehamn lufthavn

Gamvik, Norge

breddegrad: 71-02N, lengdegrad: 027-50E, høyde over havet: 1 m

Gjeldene værobservasjon

Denne rapporten ble laget for 2 timer og 58 minutter siden, klokken 22:50 UTC
Vind 13 kt fra Sør-sørøst
Temperatur -9°C
Luftfuktighet 67%
Trykk 993 hPa
Sikt 10 km eller mer
ingen skyer under 1500 m og ingen bygeskyer

METAR: ENMH 282250Z 16013KT CAVOK M09/M14 Q0993

Tid: 02:48 (01:48 UTC)


TAF: fraværende

Værobservasjoner og værvarsel for over 4000 flyplasser (METAR- og TAF-rapporter).

Tilgjengelige stasjoner er representert av de røde og gule prikkene på kartet.

Hold musepekeren over prikken for å se navnet på stasjonen.

Klikk så for å se værobservasjoner og -varsler.

For å forandre kartet kan du klikke på den grønne knappen med svart kryss for å zoome inn, på den grønne knappen med strek for å zoome ut, eller på de grønne pilene for å se tilstøtende kart.


METAR-TAF: